Time;durP1;ratioP1;P1;durP2;ratioP2;P2;SDS_P1;SDS_P2;PMS_P1;PMS_P2;Temp;Humidity;BMP_temperature;BMP_pressure;BME280_temperature;BME280_humidity;BME280_pressure;Samples;Min_cycle;Max_cycle;Signal;HPM_P1;HPM_P2
2021/07/17 00:01:12;;;;;;;18.37;14.17;;;20.80;99.90;;;;;;4900860;29;20423;-69
2021/07/17 00:03:38;;;;;;;17.70;14.53;;;20.80;99.90;;;;;;4918931;29;20762;-69
2021/07/17 00:06:04;;;;;;;15.97;14.27;;;20.80;99.90;;;;;;4917315;29;20470;-69
2021/07/17 00:08:30;;;;;;;15.77;14.27;;;20.80;99.90;;;;;;4917812;29;20253;-69
2021/07/17 00:10:56;;;;;;;16.77;14.60;;;20.80;99.90;;;;;;4901392;29;20860;-76
2021/07/17 00:13:22;;;;;;;16.20;14.60;;;20.80;99.90;;;;;;4917743;29;20658;-69
2021/07/17 00:15:50;;;;;;;17.87;14.43;;;20.80;99.90;;;;;;4918147;29;20438;-69
2021/07/17 00:18:17;;;;;;;21.90;15.60;;;20.80;99.90;;;;;;4917289;29;20229;-69
2021/07/17 00:20:48;;;;;;;16.07;13.90;;;20.80;99.90;;;;;;4918364;29;20419;-69
2021/07/17 00:23:14;;;;;;;16.53;14.27;;;20.80;99.90;;;;;;4917574;29;20403;-69
2021/07/17 00:25:42;;;;;;;16.43;14.63;;;20.80;99.90;;;;;;4917865;29;20469;-69
2021/07/17 00:28:08;;;;;;;18.67;14.03;;;20.80;99.90;;;;;;4900052;29;20427;-69
2021/07/17 00:30:35;;;;;;;22.90;13.90;;;20.80;99.90;;;;;;4917969;29;20895;-69
2021/07/17 00:33:00;;;;;;;16.23;14.50;;;20.80;99.90;;;;;;4917211;29;20965;-76
2021/07/17 00:35:26;;;;;;;19.83;14.23;;;20.80;99.90;;;;;;4917524;29;20422;-69
2021/07/17 00:37:52;;;;;;;14.53;13.23;;;20.80;99.90;;;;;;4917593;29;20427;-70
2021/07/17 00:40:21;;;;;;;16.40;13.20;;;20.80;99.90;;;;;;4916729;29;20330;-69
2021/07/17 00:42:51;;;;;;;15.90;13.90;;;20.80;99.90;;;;;;4918081;29;20189;-69
2021/07/17 00:45:18;;;;;;;14.80;13.40;;;20.80;99.90;;;;;;4916756;29;20470;-70
2021/07/17 00:47:43;;;;;;;17.80;13.77;;;20.80;99.90;;;;;;4917702;29;20531;-69
2021/07/17 00:50:12;;;;;;;16.40;14.13;;;20.80;99.90;;;;;;4917011;29;20414;-69
2021/07/17 00:52:39;;;;;;;15.60;13.50;;;20.80;99.90;;;;;;4917744;29;20274;-69
2021/07/17 00:55:06;;;;;;;19.07;14.33;;;20.80;99.90;;;;;;4917199;29;20466;-70
2021/07/17 00:57:33;;;;;;;17.87;14.87;;;20.80;99.90;;;;;;4900319;29;20926;-69
2021/07/17 01:00:01;;;;;;;16.03;13.27;;;20.90;99.90;;;;;;4916946;29;20989;-75
2021/07/17 01:02:34;;;;;;;17.67;13.70;;;20.90;99.90;;;;;;4917371;29;20910;-69
2021/07/17 01:05:00;;;;;;;20.03;14.47;;;20.90;99.90;;;;;;4917226;29;20442;-76
2021/07/17 01:07:26;;;;;;;16.00;14.37;;;20.90;99.90;;;;;;4916893;29;20415;-69
2021/07/17 01:09:52;;;;;;;17.60;13.33;;;20.90;99.90;;;;;;4900169;29;20430;-69
2021/07/17 01:12:19;;;;;;;17.80;13.67;;;20.90;99.90;;;;;;4916430;29;20178;-69
2021/07/17 01:14:46;;;;;;;16.90;13.23;;;20.90;99.90;;;;;;4917614;29;20446;-69
2021/07/17 01:17:13;;;;;;;17.90;15.10;;;20.90;99.90;;;;;;4898565;29;20470;-69
2021/07/17 01:19:40;;;;;;;20.43;14.70;;;20.90;99.90;;;;;;4917127;29;20454;-69
2021/07/17 01:22:06;;;;;;;21.10;14.93;;;20.90;99.90;;;;;;4916348;29;20857;-69
2021/07/17 01:24:31;;;;;;;17.27;14.60;;;20.90;99.90;;;;;;4917154;29;20554;-69
2021/07/17 01:26:58;;;;;;;16.00;14.30;;;20.90;99.90;;;;;;4917002;29;20434;-69
2021/07/17 01:29:24;;;;;;;16.90;14.80;;;20.90;99.90;;;;;;4916237;29;20942;-69
2021/07/17 01:31:50;;;;;;;16.93;13.93;;;20.90;99.90;;;;;;4916916;29;20463;-69
2021/07/17 01:34:16;;;;;;;17.97;14.83;;;20.90;99.90;;;;;;4916070;29;20925;-69
2021/07/17 01:36:42;;;;;;;16.00;13.93;;;20.90;99.90;;;;;;4916895;29;20433;-69
2021/07/17 01:39:08;;;;;;;18.33;14.13;;;20.90;99.90;;;;;;4916161;29;20407;-69
2021/07/17 01:41:34;;;;;;;22.00;13.97;;;20.90;99.90;;;;;;4916985;29;20190;-69
2021/07/17 01:44:00;;;;;;;15.07;13.50;;;20.90;99.90;;;;;;4916830;29;20421;-69
2021/07/17 01:46:29;;;;;;;16.40;13.53;;;20.90;99.90;;;;;;4915389;29;20182;-69
2021/07/17 01:48:57;;;;;;;16.63;14.17;;;20.90;99.90;;;;;;4916707;29;20414;-69
2021/07/17 01:51:23;;;;;;;15.23;13.77;;;20.90;99.90;;;;;;4899100;29;20433;-69
2021/07/17 01:53:57;;;;;;;18.50;13.90;;;20.90;99.90;;;;;;4916652;29;20463;-69
2021/07/17 01:56:24;;;;;;;17.33;14.00;;;20.90;99.90;;;;;;4915639;29;20552;-69
2021/07/17 01:58:50;;;;;;;15.80;14.10;;;20.90;99.90;;;;;;4899988;29;20423;-69
2021/07/17 02:01:17;;;;;;;18.80;14.50;;;20.90;99.90;;;;;;4898642;29;20413;-69
2021/07/17 02:03:47;;;;;;;18.60;14.13;;;20.90;99.90;;;;;;4916534;29;20179;-69
2021/07/17 02:06:14;;;;;;;17.67;13.87;;;20.90;99.90;;;;;;4898303;29;20439;-69
2021/07/17 02:08:41;;;;;;;18.70;14.33;;;20.90;99.90;;;;;;4899386;29;20458;-69
2021/07/17 02:11:08;;;;;;;17.33;14.83;;;20.90;99.90;;;;;;4915392;29;20449;-73
2021/07/17 02:13:34;;;;;;;14.93;13.63;;;20.90;99.90;;;;;;4916419;29;20415;-70
2021/07/17 02:16:01;;;;;;;16.40;12.93;;;20.90;99.90;;;;;;4915694;29;20434;-69
2021/07/17 02:18:32;;;;;;;16.77;13.30;;;20.90;99.90;;;;;;4898643;29;20422;-69
2021/07/17 02:21:03;;;;;;;18.37;14.23;;;20.90;99.90;;;;;;4916018;29;20485;-69
2021/07/17 02:23:29;;;;;;;15.17;13.50;;;20.90;99.90;;;;;;4915977;29;20413;-69
2021/07/17 02:25:55;;;;;;;14.60;13.20;;;20.90;99.90;;;;;;4916009;29;20493;-69
2021/07/17 02:28:21;;;;;;;18.13;14.00;;;20.90;99.90;;;;;;4914957;29;20451;-69
2021/07/17 02:30:49;;;;;;;17.00;13.13;;;20.90;99.90;;;;;;4916026;29;20418;-69
2021/07/17 02:33:14;;;;;;;17.67;13.90;;;20.80;99.90;;;;;;4915170;29;20438;-69
2021/07/17 02:35:40;;;;;;;14.43;12.83;;;20.80;99.90;;;;;;4915625;29;20465;-69
2021/07/17 02:38:06;;;;;;;22.30;15.03;;;20.80;99.90;;;;;;4915263;29;20194;-75
2021/07/17 02:40:32;;;;;;;16.80;13.43;;;20.80;99.90;;;;;;4915529;29;20189;-69
2021/07/17 02:42:58;;;;;;;14.63;13.20;;;20.80;99.90;;;;;;4916142;29;20433;-69
2021/07/17 02:45:24;;;;;;;16.13;13.10;;;20.80;99.90;;;;;;4898180;29;20474;-69
2021/07/17 02:47:50;;;;;;;18.50;13.37;;;20.80;99.90;;;;;;4916078;29;20182;-69
2021/07/17 02:50:17;;;;;;;18.40;13.23;;;20.80;99.90;;;;;;4915241;29;20178;-69
2021/07/17 02:52:42;;;;;;;16.13;11.90;;;20.80;99.90;;;;;;4915708;29;20425;-69
2021/07/17 02:55:09;;;;;;;17.17;13.07;;;20.80;99.90;;;;;;4915319;29;20423;-75
2021/07/17 02:57:35;;;;;;;15.30;12.43;;;20.80;99.90;;;;;;4899027;29;20218;-69
2021/07/17 03:00:01;;;;;;;14.57;12.37;;;20.80;99.90;;;;;;4915782;29;20505;-68
2021/07/17 03:02:27;;;;;;;18.00;13.20;;;20.80;99.90;;;;;;4897649;29;20183;-70
2021/07/17 03:04:53;;;;;;;17.20;13.10;;;20.80;99.90;;;;;;4915813;29;20450;-69
2021/07/17 03:07:18;;;;;;;16.87;13.37;;;20.80;99.90;;;;;;4898068;29;20482;-70
2021/07/17 03:09:44;;;;;;;15.90;12.60;;;20.70;99.90;;;;;;4898578;29;20179;-69
2021/07/17 03:12:10;;;;;;;19.43;12.57;;;20.70;99.90;;;;;;4915058;29;20206;-77
2021/07/17 03:14:36;;;;;;;15.60;13.60;;;20.70;99.90;;;;;;4915561;29;20225;-69
2021/07/17 03:17:01;;;;;;;18.70;13.50;;;20.70;99.90;;;;;;4915080;29;20246;-69
2021/07/17 03:19:27;;;;;;;14.30;12.80;;;20.70;99.90;;;;;;4897973;29;20285;-70
2021/07/17 03:21:53;;;;;;;20.43;13.33;;;20.70;99.90;;;;;;4915720;29;20179;-70
2021/07/17 03:24:19;;;;;;;17.10;12.40;;;20.70;99.90;;;;;;4914491;29;20214;-70
2021/07/17 03:26:44;;;;;;;15.27;13.07;;;20.70;99.90;;;;;;4915676;29;20221;-70
2021/07/17 03:29:10;;;;;;;20.00;13.00;;;20.70;99.90;;;;;;4914905;29;20919;-77
2021/07/17 03:31:36;;;;;;;17.80;14.03;;;20.60;99.90;;;;;;4915376;29;20232;-69
2021/07/17 03:34:02;;;;;;;17.00;13.57;;;20.60;99.90;;;;;;4915348;29;20210;-70
2021/07/17 03:36:28;;;;;;;19.00;14.50;;;20.60;99.90;;;;;;4914797;29;20464;-69
2021/07/17 03:38:54;;;;;;;15.70;14.10;;;20.60;99.90;;;;;;4915257;29;20442;-74
2021/07/17 03:41:20;;;;;;;16.00;14.10;;;20.60;99.90;;;;;;4916421;29;20179;-69
2021/07/17 03:43:46;;;;;;;19.43;13.83;;;20.60;99.90;;;;;;4918914;29;20433;-69
2021/07/17 03:46:13;;;;;;;16.40;13.80;;;20.60;99.90;;;;;;4918179;29;20477;-76
2021/07/17 03:48:39;;;;;;;16.27;12.73;;;20.60;99.90;;;;;;4901855;29;20422;-69
2021/07/17 03:51:05;;;;;;;15.80;12.90;;;20.60;99.90;;;;;;4918741;29;20426;-69
2021/07/17 03:53:32;;;;;;;15.93;13.73;;;20.60;99.90;;;;;;4918080;29;21053;-69
2021/07/17 03:55:57;;;;;;;14.87;13.30;;;20.60;99.90;;;;;;4918825;29;20895;-69
2021/07/17 03:58:23;;;;;;;16.57;13.87;;;20.50;99.90;;;;;;4917965;29;20445;-69
2021/07/17 04:00:49;;;;;;;15.33;13.37;;;20.50;99.90;;;;;;4918611;29;20179;-69
2021/07/17 04:03:15;;;;;;;14.57;12.93;;;20.50;99.90;;;;;;4917586;29;20539;-70
2021/07/17 04:05:41;;;;;;;15.50;13.10;;;20.50;99.90;;;;;;4901397;29;20459;-69
2021/07/17 04:08:07;;;;;;;16.50;14.87;;;20.50;99.90;;;;;;4918601;29;20174;-69
2021/07/17 04:10:33;;;;;;;17.03;14.17;;;20.50;99.90;;;;;;4900803;29;20183;-69
2021/07/17 04:13:02;;;;;;;16.63;13.47;;;20.50;99.90;;;;;;4918501;29;20438;-69
2021/07/17 04:15:28;;;;;;;16.00;14.30;;;20.50;99.90;;;;;;4916895;29;20191;-69
2021/07/17 04:17:53;;;;;;;16.90;14.00;;;20.50;99.90;;;;;;4918301;29;20455;-69
2021/07/17 04:20:19;;;;;;;15.93;13.80;;;20.40;99.90;;;;;;4917592;29;20179;-70
2021/07/17 04:22:45;;;;;;;16.43;13.40;;;20.40;99.90;;;;;;4918278;29;20241;-69
2021/07/17 04:25:11;;;;;;;16.30;13.50;;;20.40;99.90;;;;;;4918081;29;20213;-76
2021/07/17 04:27:38;;;;;;;18.30;13.87;;;20.40;99.90;;;;;;4917656;29;20189;-69
2021/07/17 04:30:04;;;;;;;14.47;13.03;;;20.40;99.90;;;;;;4918175;29;20418;-70
2021/07/17 04:32:30;;;;;;;19.67;13.90;;;20.40;99.90;;;;;;4899988;29;20485;-69
2021/07/17 04:34:56;;;;;;;16.47;13.30;;;20.40;99.90;;;;;;4917867;29;20918;-69
2021/07/17 04:37:21;;;;;;;15.00;13.57;;;20.40;99.90;;;;;;4917524;29;20194;-69
2021/07/17 04:39:50;;;;;;;20.07;14.37;;;20.40;99.90;;;;;;4901265;29;20178;-69
2021/07/17 04:42:16;;;;;;;17.53;14.00;;;20.40;99.90;;;;;;4916682;29;20604;-73
2021/07/17 04:44:42;;;;;;;16.30;14.47;;;20.40;99.90;;;;;;4917369;29;20474;-69
2021/07/17 04:47:08;;;;;;;16.53;14.17;;;20.40;99.90;;;;;;4917739;29;20902;-69
2021/07/17 04:49:34;;;;;;;19.27;13.57;;;20.40;99.90;;;;;;4916801;29;20633;-69
2021/07/17 04:52:00;;;;;;;16.73;15.10;;;20.40;99.90;;;;;;4916690;29;20847;-69
2021/07/17 04:54:26;;;;;;;15.40;13.90;;;20.40;99.90;;;;;;4916300;29;20455;-70
2021/07/17 04:56:52;;;;;;;18.33;13.23;;;20.40;99.90;;;;;;4917555;29;20550;-69
2021/07/17 04:59:18;;;;;;;14.90;13.30;;;20.50;99.90;;;;;;4916759;29;20419;-69
2021/07/17 05:01:43;;;;;;;19.13;13.77;;;20.40;99.90;;;;;;4917465;29;20246;-69
2021/07/17 05:04:10;;;;;;;17.37;14.33;;;20.50;99.90;;;;;;4917295;29;20190;-69
2021/07/17 05:06:36;;;;;;;19.47;14.30;;;20.50;99.90;;;;;;4916727;29;20174;-69
2021/07/17 05:09:02;;;;;;;20.30;15.10;;;20.50;99.90;;;;;;4917175;29;20407;-70
2021/07/17 05:11:28;;;;;;;17.53;13.77;;;20.50;99.90;;;;;;4916431;29;20266;-69
2021/07/17 05:13:54;;;;;;;15.47;12.70;;;20.50;99.90;;;;;;4917314;29;20577;-69
2021/07/17 05:16:20;;;;;;;15.70;13.63;;;20.50;99.90;;;;;;4916479;29;20647;-69
2021/07/17 05:18:45;;;;;;;14.80;13.27;;;20.50;99.90;;;;;;4918096;29;20426;-69
2021/07/17 05:21:11;;;;;;;14.90;13.50;;;20.50;99.90;;;;;;4917540;29;20262;-69
2021/07/17 05:23:37;;;;;;;14.67;13.07;;;20.60;99.90;;;;;;4916914;29;20178;-68
2021/07/17 05:26:02;;;;;;;15.33;13.77;;;20.50;99.90;;;;;;4917419;29;20218;-69
2021/07/17 05:28:28;;;;;;;21.60;13.10;;;20.60;99.90;;;;;;4916866;29;20294;-69
2021/07/17 05:30:54;;;;;;;15.97;13.03;;;20.60;99.90;;;;;;4916642;29;20225;-69
2021/07/17 05:33:20;;;;;;;15.20;12.87;;;20.60;99.90;;;;;;4916794;29;20270;-70
2021/07/17 05:35:46;;;;;;;17.90;13.23;;;20.70;99.90;;;;;;4917079;29;20466;-70
2021/07/17 05:38:11;;;;;;;17.87;12.97;;;20.80;99.90;;;;;;4916510;29;20694;-70
2021/07/17 05:40:37;;;;;;;13.57;12.20;;;20.90;99.90;;;;;;4916563;29;20190;-70
2021/07/17 05:43:03;;;;;;;14.13;12.60;;;21.00;99.90;;;;;;4900313;29;20665;-69
2021/07/17 05:45:28;;;;;;;16.67;14.20;;;21.10;99.90;;;;;;4899492;29;20726;-70
2021/07/17 05:47:54;;;;;;;16.97;13.97;;;21.20;99.90;;;;;;4916973;29;20174;-70
2021/07/17 05:50:20;;;;;;;15.27;13.67;;;21.30;99.90;;;;;;4899399;29;20182;-70
2021/07/17 05:52:47;;;;;;;14.97;13.47;;;21.30;99.90;;;;;;4922012;29;20622;-70
2021/07/17 05:55:13;;;;;;;16.40;13.67;;;21.40;99.90;;;;;;4916245;29;20418;-69
2021/07/17 05:57:39;;;;;;;15.10;13.23;;;21.50;99.90;;;;;;4915502;29;20438;-70
2021/07/17 06:00:09;;;;;;;16.70;13.80;;;21.50;99.90;;;;;;4918135;29;20426;-71
2021/07/17 06:02:35;;;;;;;18.13;13.80;;;21.50;99.90;;;;;;4905992;29;20179;-70
2021/07/17 06:05:00;;;;;;;17.30;12.67;;;21.60;99.90;;;;;;4915741;29;20525;-69
2021/07/17 06:07:26;;;;;;;16.70;14.10;;;21.60;99.90;;;;;;4899688;29;20246;-69
2021/07/17 06:09:52;;;;;;;15.70;13.10;;;21.60;99.90;;;;;;4916232;29;20179;-70
2021/07/17 06:12:17;;;;;;;21.03;14.20;;;21.60;99.90;;;;;;4913817;29;20175;-76
2021/07/17 06:14:43;;;;;;;18.83;13.73;;;21.60;99.90;;;;;;4914804;29;20190;-69
2021/07/17 06:17:11;;;;;;;16.10;13.47;;;21.70;99.90;;;;;;4914959;29;20185;-71
2021/07/17 06:19:43;;;;;;;16.73;12.40;;;21.70;99.90;;;;;;4914193;29;20182;-70
2021/07/17 06:22:12;;;;;;;13.13;11.73;;;21.70;99.90;;;;;;4914802;29;20957;-71
2021/07/17 06:24:40;;;;;;;18.63;13.30;;;21.80;99.90;;;;;;4914462;29;21148;-70
2021/07/17 06:27:06;;;;;;;20.37;13.50;;;21.80;99.90;;;;;;4898149;29;20419;-69
2021/07/17 06:29:33;;;;;;;14.77;13.27;;;21.90;99.90;;;;;;4914602;29;20421;-70
2021/07/17 06:31:58;;;;;;;18.90;14.03;;;21.90;99.90;;;;;;4915362;29;20454;-69
2021/07/17 06:34:24;;;;;;;18.20;14.30;;;21.90;99.90;;;;;;4915128;29;20841;-70
2021/07/17 06:36:50;;;;;;;25.43;13.90;;;21.90;99.90;;;;;;4914586;29;20325;-70
2021/07/17 06:39:16;;;;;;;19.73;14.57;;;21.90;99.90;;;;;;4896915;29;20188;-70
2021/07/17 06:41:42;;;;;;;16.03;12.80;;;21.90;99.90;;;;;;4914344;29;20766;-70
2021/07/17 06:44:08;;;;;;;15.03;13.43;;;22.00;99.90;;;;;;4914551;29;20418;-70
2021/07/17 06:46:34;;;;;;;14.50;13.00;;;22.00;99.90;;;;;;4913470;29;20183;-70
2021/07/17 06:48:59;;;;;;;17.70;13.03;;;22.00;99.90;;;;;;4915148;29;20433;-70
2021/07/17 06:51:25;;;;;;;14.67;13.00;;;22.00;99.90;;;;;;4915300;29;20238;-70
2021/07/17 06:53:51;;;;;;;16.40;13.73;;;22.00;99.90;;;;;;4915256;29;20193;-70
2021/07/17 06:56:17;;;;;;;15.40;12.57;;;22.00;99.90;;;;;;4915681;29;20186;-70
2021/07/17 06:58:43;;;;;;;15.53;12.50;;;22.00;99.90;;;;;;4898447;29;20207;-70
2021/07/17 07:01:09;;;;;;;17.17;14.10;;;22.00;99.90;;;;;;4915881;29;20418;-70
2021/07/17 07:03:35;;;;;;;15.73;13.50;;;22.10;99.90;;;;;;4914891;29;20413;-70
2021/07/17 07:06:01;;;;;;;16.13;12.87;;;22.10;99.90;;;;;;4915405;29;20611;-70
2021/07/17 07:08:27;;;;;;;16.17;13.77;;;22.00;99.90;;;;;;4914652;29;20434;-70
2021/07/17 07:10:52;;;;;;;17.70;13.30;;;22.00;99.90;;;;;;4915892;29;20557;-71
2021/07/17 07:13:18;;;;;;;15.03;13.13;;;22.00;99.90;;;;;;4914615;29;20265;-75
2021/07/17 07:15:45;;;;;;;15.60;13.60;;;22.00;99.90;;;;;;4898501;29;20430;-69
2021/07/17 07:18:13;;;;;;;14.10;12.70;;;22.00;99.90;;;;;;4918978;29;20426;-69
2021/07/17 07:20:39;;;;;;;13.30;12.00;;;22.10;99.90;;;;;;4918452;29;21217;-69
2021/07/17 07:23:05;;;;;;;20.33;13.83;;;22.20;99.90;;;;;;4919156;29;20421;-71
2021/07/17 07:25:30;;;;;;;21.60;13.43;;;22.20;99.90;;;;;;4918415;29;20465;-70
2021/07/17 07:27:57;;;;;;;15.57;13.50;;;22.20;99.90;;;;;;4902159;29;20190;-71
2021/07/17 07:30:23;;;;;;;15.43;12.87;;;22.20;99.90;;;;;;4918161;29;20185;-74
2021/07/17 07:32:49;;;;;;;17.03;14.13;;;22.20;99.90;;;;;;4918595;29;20949;-72
2021/07/17 07:35:25;;;;;;;15.67;13.53;;;22.20;99.90;;;;;;4919598;29;20517;-71
2021/07/17 07:37:52;;;;;;;14.07;12.60;;;22.10;99.90;;;;;;4919175;29;20492;-70
2021/07/17 07:40:19;;;;;;;20.83;15.23;;;22.10;99.90;;;;;;4918996;29;20422;-71
2021/07/17 07:42:45;;;;;;;16.93;13.30;;;22.20;99.90;;;;;;4934841;29;20489;-71
2021/07/17 07:45:11;;;;;;;15.27;13.67;;;22.20;99.90;;;;;;4905879;29;20824;-71
2021/07/17 07:47:37;;;;;;;19.13;14.20;;;22.30;99.90;;;;;;4901260;29;20454;-72
2021/07/17 07:50:05;;;;;;;17.40;13.13;;;22.40;99.90;;;;;;4918214;29;20465;-71
2021/07/17 07:52:31;;;;;;;17.90;13.33;;;22.40;99.90;;;;;;4918076;29;20678;-71
2021/07/17 07:54:57;;;;;;;12.17;11.10;;;22.50;99.90;;;;;;4918795;29;20426;-71
2021/07/17 07:57:23;;;;;;;15.10;12.93;;;22.50;99.90;;;;;;4918473;29;20438;-87
2021/07/17 07:59:49;;;;;;;14.23;12.93;;;22.60;99.90;;;;;;4901259;29;20175;-71
2021/07/17 08:02:15;;;;;;;22.50;15.50;;;22.60;99.90;;;;;;4919037;29;20230;-71
2021/07/17 08:04:41;;;;;;;19.57;13.67;;;22.70;99.90;;;;;;4917951;29;20264;-71
2021/07/17 08:07:06;;;;;;;19.63;14.20;;;22.70;99.90;;;;;;4918906;29;20205;-71
2021/07/17 08:09:32;;;;;;;16.40;14.60;;;22.70;99.90;;;;;;4917704;29;20626;-71
2021/07/17 08:11:58;;;;;;;22.13;13.60;;;22.70;99.90;;;;;;4917785;29;20285;-70
2021/07/17 08:14:23;;;;;;;16.30;14.17;;;22.60;99.90;;;;;;4917895;29;20193;-84
2021/07/17 08:16:50;;;;;;;17.43;14.30;;;22.60;99.90;;;;;;4901106;29;20246;-71
2021/07/17 08:19:16;;;;;;;17.80;14.90;;;22.60;99.90;;;;;;4917850;29;20237;-72
2021/07/17 08:21:42;;;;;;;17.60;15.10;;;22.50;99.90;;;;;;4918374;29;20457;-69
2021/07/17 08:24:08;;;;;;;21.70;15.93;;;22.40;99.90;;;;;;4900647;29;20457;-72
2021/07/17 08:26:35;;;;;;;18.00;15.50;;;22.40;99.90;;;;;;4917621;29;20517;-71
2021/07/17 08:29:01;;;;;;;18.80;15.27;;;22.40;99.90;;;;;;4918309;29;20589;-71
2021/07/17 08:31:27;;;;;;;21.73;16.97;;;22.30;99.90;;;;;;4917807;29;20458;-72
2021/07/17 08:33:52;;;;;;;21.30;16.30;;;22.30;99.90;;;;;;4918913;29;20441;-71
2021/07/17 08:36:18;;;;;;;23.00;17.47;;;22.20;99.90;;;;;;4917502;29;20193;-70
2021/07/17 08:38:44;;;;;;;19.67;17.53;;;22.20;99.90;;;;;;4917287;29;20538;-73
2021/07/17 08:41:10;;;;;;;20.43;17.20;;;22.10;99.90;;;;;;4900395;29;20650;-71
2021/07/17 08:43:38;;;;;;;22.03;16.90;;;22.10;99.90;;;;;;4917127;29;20423;-71
2021/07/17 08:46:04;;;;;;;22.13;16.90;;;22.10;99.90;;;;;;4900773;29;20455;-71
2021/07/17 08:48:31;;;;;;;19.80;16.90;;;22.10;99.90;;;;;;4916821;29;20462;-71
2021/07/17 08:50:58;;;;;;;23.73;18.40;;;22.10;99.90;;;;;;4916880;29;20911;-75
2021/07/17 08:53:25;;;;;;;24.40;18.20;;;22.10;99.90;;;;;;4917303;29;20418;-80
2021/07/17 08:55:51;;;;;;;19.87;17.77;;;22.10;99.90;;;;;;4917505;29;20419;-71
2021/07/17 08:58:17;;;;;;;24.23;19.40;;;22.10;99.90;;;;;;4917770;29;20433;-69
2021/07/17 09:00:44;;;;;;;26.73;20.70;;;22.10;99.90;;;;;;4917194;29;20257;-69
2021/07/17 09:03:14;;;;;;;31.03;21.50;;;22.00;99.90;;;;;;4917726;29;20182;-69
2021/07/17 09:05:45;;;;;;;25.37;19.80;;;22.00;99.90;;;;;;4905194;29;20450;-69
2021/07/17 09:08:12;;;;;;;23.60;20.30;;;21.90;99.90;;;;;;4917100;29;20470;-69
2021/07/17 09:10:43;;;;;;;23.50;20.87;;;21.80;99.90;;;;;;4917269;29;20455;-69
2021/07/17 09:13:23;;;;;;;24.17;20.00;;;21.70;99.90;;;;;;4917933;29;20433;-69
2021/07/17 09:15:48;;;;;;;22.53;20.33;;;21.70;99.90;;;;;;4917214;29;20411;-69
2021/07/17 09:18:54;;;;;;;21.27;19.07;;;21.70;99.90;;;;;;4916575;29;20794;-69
2021/07/17 09:21:30;;;;;;;30.23;21.80;;;21.70;99.90;;;;;;4909779;29;20238;-69
2021/07/17 09:24:05;;;;;;;25.43;20.17;;;21.60;99.90;;;;;;4917889;29;20407;-69
2021/07/17 09:26:37;;;;;;;20.17;17.20;;;21.60;99.90;;;;;;4916871;29;20433;-70
2021/07/17 09:29:02;;;;;;;22.67;17.30;;;21.70;99.90;;;;;;4918325;29;20800;-69
2021/07/17 09:31:35;;;;;;;25.83;19.77;;;21.60;99.90;;;;;;4917321;29;20470;-70
2021/07/17 09:34:08;;;;;;;20.87;18.07;;;21.70;99.90;;;;;;4916438;29;20182;-69
2021/07/17 09:36:49;;;;;;;21.67;18.30;;;21.90;99.90;;;;;;4914758;29;20419;-69
2021/07/17 09:39:18;;;;;;;19.23;16.60;;;22.00;99.90;;;;;;4915525;29;20418;-71
2021/07/17 09:42:00;;;;;;;19.93;17.83;;;22.20;99.90;;;;;;4915721;29;20514;-71
2021/07/17 09:44:28;;;;;;;87.10;71.03;;;22.40;99.90;;;;;;4909231;29;20494;-71
2021/07/17 09:46:54;;;;;;;61.47;54.87;;;22.60;99.90;;;;;;4917867;29;20425;-73
2021/07/17 09:49:22;;;;;;;33.10;26.70;;;22.80;99.90;;;;;;4913820;29;20414;-75
2021/07/17 09:51:48;;;;;;;19.60;17.10;;;22.90;99.90;;;;;;4912937;29;21103;-75
2021/07/17 09:54:15;;;;;;;15.83;14.13;;;23.10;99.90;;;;;;4899627;29;20457;-72
2021/07/17 09:56:41;;;;;;;16.27;14.77;;;23.20;99.90;;;;;;4915068;29;20433;-78
2021/07/17 09:59:10;;;;;;;17.07;15.47;;;23.30;99.90;;;;;;4916174;29;20791;-71
2021/07/17 10:01:39;;;;;;;17.80;15.60;;;23.50;99.90;;;;;;4915084;29;20430;-72
2021/07/17 10:04:08;;;;;;;15.00;13.70;;;23.60;99.90;;;;;;4914535;29;20426;-72
2021/07/17 10:06:47;;;;;;;16.83;15.23;;;23.70;99.90;;;;;;4897246;29;20419;-78
2021/07/17 10:09:14;;;;;;;15.63;14.23;;;23.80;99.90;;;;;;4932388;29;20429;-75
2021/07/17 10:11:41;;;;;;;16.90;13.60;;;23.90;99.90;;;;;;4914976;29;20875;-72
2021/07/17 10:14:26;;;;;;;16.40;14.70;;;23.90;99.80;;;;;;4914968;29;20525;-71
2021/07/17 10:16:58;;;;;;;14.83;13.57;;;24.00;99.90;;;;;;4913640;29;20485;-74
2021/07/17 10:19:27;;;;;;;14.10;12.90;;;24.10;99.90;;;;;;4897694;29;20422;-72
2021/07/17 10:21:54;;;;;;;15.60;13.17;;;24.20;99.90;;;;;;4896416;29;20461;-72
2021/07/17 10:24:21;;;;;;;15.07;13.87;;;24.40;99.30;;;;;;4915409;29;20502;-73
2021/07/17 10:26:49;;;;;;;15.77;12.60;;;24.60;99.70;;;;;;4913936;29;20538;-78
2021/07/17 10:29:18;;;;;;;17.83;14.77;;;24.80;99.90;;;;;;4913921;29;20926;-73
2021/07/17 10:31:45;;;;;;;15.87;14.23;;;24.90;99.80;;;;;;4914105;29;20469;-71
2021/07/17 10:34:11;;;;;;;14.47;13.07;;;25.10;99.10;;;;;;4913782;29;20952;-72
2021/07/17 10:36:44;;;;;;;14.10;12.57;;;25.20;98.30;;;;;;4913851;29;20513;-71
2021/07/17 10:39:11;;;;;;;16.63;14.90;;;25.30;98.10;;;;;;4914730;29;20533;-71
2021/07/17 10:41:40;;;;;;;16.57;14.97;;;25.40;98.20;;;;;;4913358;29;20521;-71
2021/07/17 10:44:06;;;;;;;15.93;14.63;;;25.40;98.20;;;;;;4915357;29;20521;-71
2021/07/17 10:46:38;;;;;;;16.07;14.60;;;25.50;97.70;;;;;;4916161;29;20430;-83
2021/07/17 10:49:07;;;;;;;14.63;13.20;;;25.60;98.30;;;;;;4916026;29;20430;-71
2021/07/17 10:51:36;;;;;;;12.83;11.67;;;25.70;97.90;;;;;;4902698;29;20434;-82
2021/07/17 10:54:07;;;;;;;13.27;12.10;;;25.80;98.60;;;;;;4903070;29;20505;-71
2021/07/17 10:56:35;;;;;;;13.90;12.60;;;25.90;98.00;;;;;;4903020;29;20438;-82
2021/07/17 10:59:09;;;;;;;13.37;11.97;;;25.90;97.20;;;;;;4920228;29;20411;-69
2021/07/17 11:01:58;;;;;;;12.03;10.83;;;25.90;96.60;;;;;;4919436;29;20493;-70
2021/07/17 11:04:40;;;;;;;12.30;11.10;;;25.90;96.40;;;;;;4919799;29;20525;-70
2021/07/17 11:07:18;;;;;;;14.03;10.50;;;25.90;96.80;;;;;;4917967;29;20426;-70
2021/07/17 11:09:58;;;;;;;11.60;10.40;;;25.90;97.60;;;;;;4914955;29;20809;-71
2021/07/17 11:12:32;;;;;;;12.97;10.00;;;25.90;98.40;;;;;;4902386;29;20423;-71
2021/07/17 11:15:09;;;;;;;12.50;10.73;;;25.90;97.80;;;;;;4920469;29;20529;-70
2021/07/17 11:17:50;;;;;;;111.27;94.50;;;25.90;96.80;;;;;;4907526;29;20430;-74
2021/07/17 11:20:26;;;;;;;31.10;27.80;;;26.00;96.50;;;;;;4919878;29;20414;-69
2021/07/17 11:23:12;;;;;;;146.27;118.53;;;26.10;97.60;;;;;;4902798;29;20414;-70
2021/07/17 11:25:38;;;;;;;16.63;14.93;;;26.30;96.40;;;;;;4919080;29;20984;-71
2021/07/17 11:28:04;;;;;;;10.97;9.50;;;26.50;96.60;;;;;;4919801;29;20430;-71
2021/07/17 11:30:35;;;;;;;10.20;9.33;;;26.60;96.30;;;;;;4919187;29;20502;-71
2021/07/17 11:33:05;;;;;;;9.17;8.37;;;26.80;95.50;;;;;;4919814;29;20462;-70
2021/07/17 11:35:38;;;;;;;10.50;8.37;;;26.70;94.00;;;;;;4902894;29;20422;-72
2021/07/17 11:38:06;;;;;;;11.50;10.50;;;26.60;95.00;;;;;;4901212;29;20412;-70
2021/07/17 11:40:33;;;;;;;12.23;9.00;;;26.50;95.20;;;;;;4897251;29;20426;-71
2021/07/17 11:43:04;;;;;;;10.77;8.30;;;26.40;95.20;;;;;;4902545;29;20450;-70
2021/07/17 11:45:30;;;;;;;8.03;7.23;;;26.50;96.30;;;;;;4902660;29;20472;-75
2021/07/17 11:48:13;;;;;;;9.00;8.10;;;26.50;96.10;;;;;;4917738;29;20423;-74
2021/07/17 11:50:40;;;;;;;7.20;6.60;;;26.70;97.40;;;;;;4913617;29;20315;-79
2021/07/17 11:53:19;;;;;;;8.07;6.73;;;26.80;95.20;;;;;;4919019;29;20485;-78
2021/07/17 11:55:58;;;;;;;8.73;6.13;;;27.00;95.10;;;;;;4901698;29;20410;-79
2021/07/17 11:58:24;;;;;;;7.80;6.67;;;27.20;94.50;;;;;;4919186;29;20917;-80
2021/07/17 12:01:00;;;;;;;7.50;6.87;;;27.30;92.90;;;;;;4918132;29;20502;-79
2021/07/17 12:03:26;;;;;;;9.20;6.00;;;27.40;93.40;;;;;;4902408;29;20190;-80
2021/07/17 12:05:52;;;;;;;7.00;6.30;;;27.50;92.40;;;;;;4918251;29;20490;-80
2021/07/17 12:08:22;;;;;;;7.97;6.10;;;27.50;93.20;;;;;;4918665;29;20182;-80
2021/07/17 12:10:47;;;;;;;6.70;6.00;;;27.60;93.20;;;;;;4918617;29;20188;-80
2021/07/17 12:13:13;;;;;;;6.70;6.03;;;27.70;92.80;;;;;;4919080;29;20876;-80
2021/07/17 12:15:41;;;;;;;6.07;5.67;;;27.80;91.40;;;;;;4918318;29;20513;-79
2021/07/17 12:18:15;;;;;;;7.43;6.70;;;27.90;92.40;;;;;;4918414;29;20616;-80
2021/07/17 12:20:47;;;;;;;6.60;6.00;;;28.00;92.10;;;;;;4918381;29;20768;-79
2021/07/17 12:23:15;;;;;;;6.00;5.33;;;28.10;91.70;;;;;;4918688;29;20415;-80
2021/07/17 12:25:49;;;;;;;7.33;5.80;;;28.10;90.00;;;;;;4918963;29;20457;-80
2021/07/17 12:28:17;;;;;;;6.63;5.30;;;28.10;90.70;;;;;;4902197;29;20405;-80
2021/07/17 12:30:53;;;;;;;8.00;6.40;;;28.10;90.90;;;;;;4917719;29;20427;-79